sensor_id;sensor_type;location;lat;lon;timestamp;P1;durP1;ratioP1;P2;durP2;ratioP2
51566;SDS011;37657;53.182;5.638;2023-08-07T00:00:22;7.13;;;3.53;;
51566;SDS011;37657;53.182;5.638;2023-08-07T00:02:48;7.25;;;3.70;;
51566;SDS011;37657;53.182;5.638;2023-08-07T00:05:13;13.23;;;4.65;;
51566;SDS011;37657;53.182;5.638;2023-08-07T00:07:39;8.55;;;3.38;;
51566;SDS011;37657;53.182;5.638;2023-08-07T00:10:05;7.70;;;3.90;;
51566;SDS011;37657;53.182;5.638;2023-08-07T00:12:32;9.60;;;4.85;;
51566;SDS011;37657;53.182;5.638;2023-08-07T00:14:57;7.10;;;3.80;;
51566;SDS011;37657;53.182;5.638;2023-08-07T00:17:23;11.13;;;4.28;;
51566;SDS011;37657;53.182;5.638;2023-08-07T00:19:48;12.60;;;3.88;;
51566;SDS011;37657;53.182;5.638;2023-08-07T00:22:14;6.13;;;3.38;;
51566;SDS011;37657;53.182;5.638;2023-08-07T00:24:39;8.73;;;3.13;;
51566;SDS011;37657;53.182;5.638;2023-08-07T00:27:05;5.47;;;2.67;;
51566;SDS011;37657;53.182;5.638;2023-08-07T00:29:31;8.50;;;3.70;;
51566;SDS011;37657;53.182;5.638;2023-08-07T00:31:58;7.35;;;3.03;;
51566;SDS011;37657;53.182;5.638;2023-08-07T00:34:23;9.18;;;3.47;;
51566;SDS011;37657;53.182;5.638;2023-08-07T00:36:49;7.30;;;3.30;;
51566;SDS011;37657;53.182;5.638;2023-08-07T00:39:15;9.32;;;3.20;;
51566;SDS011;37657;53.182;5.638;2023-08-07T00:41:40;8.05;;;4.00;;
51566;SDS011;37657;53.182;5.638;2023-08-07T00:44:06;8.02;;;3.17;;
51566;SDS011;37657;53.182;5.638;2023-08-07T00:46:32;6.25;;;2.72;;
51566;SDS011;37657;53.182;5.638;2023-08-07T00:48:57;8.70;;;3.85;;
51566;SDS011;37657;53.182;5.638;2023-08-07T00:51:23;9.68;;;3.08;;
51566;SDS011;37657;53.182;5.638;2023-08-07T00:53:49;8.30;;;2.30;;
51566;SDS011;37657;53.182;5.638;2023-08-07T00:56:15;9.30;;;4.28;;
51566;SDS011;37657;53.182;5.638;2023-08-07T00:58:41;12.32;;;4.03;;
51566;SDS011;37657;53.182;5.638;2023-08-07T01:01:07;8.25;;;2.50;;
51566;SDS011;37657;53.182;5.638;2023-08-07T01:03:32;10.60;;;3.10;;
51566;SDS011;37657;53.182;5.638;2023-08-07T01:05:59;10.82;;;3.50;;
51566;SDS011;37657;53.182;5.638;2023-08-07T01:08:24;9.32;;;2.70;;
51566;SDS011;37657;53.182;5.638;2023-08-07T01:13:36;9.07;;;3.45;;
51566;SDS011;37657;53.182;5.638;2023-08-07T01:16:10;28.48;;;4.75;;
51566;SDS011;37657;53.182;5.638;2023-08-07T01:18:42;17.15;;;4.05;;
51566;SDS011;37657;53.182;5.638;2023-08-07T01:21:19;8.48;;;3.67;;
51566;SDS011;37657;53.182;5.638;2023-08-07T01:23:48;7.55;;;3.67;;
51566;SDS011;37657;53.182;5.638;2023-08-07T01:26:18;9.75;;;3.78;;
51566;SDS011;37657;53.182;5.638;2023-08-07T01:28:50;9.40;;;4.38;;
51566;SDS011;37657;53.182;5.638;2023-08-07T01:31:25;8.90;;;3.38;;
51566;SDS011;37657;53.182;5.638;2023-08-07T01:33:56;10.23;;;3.75;;
51566;SDS011;37657;53.182;5.638;2023-08-07T01:36:25;11.18;;;4.32;;
51566;SDS011;37657;53.182;5.638;2023-08-07T01:38:53;8.30;;;3.70;;
51566;SDS011;37657;53.182;5.638;2023-08-07T01:41:22;7.18;;;3.00;;
51566;SDS011;37657;53.182;5.638;2023-08-07T01:43:47;16.13;;;4.38;;
51566;SDS011;37657;53.182;5.638;2023-08-07T01:46:13;15.60;;;3.65;;
51566;SDS011;37657;53.182;5.638;2023-08-07T01:48:38;13.00;;;3.53;;
51566;SDS011;37657;53.182;5.638;2023-08-07T01:51:04;8.73;;;3.92;;
51566;SDS011;37657;53.182;5.638;2023-08-07T01:53:30;11.02;;;3.28;;
51566;SDS011;37657;53.182;5.638;2023-08-07T01:55:55;7.32;;;3.25;;
51566;SDS011;37657;53.182;5.638;2023-08-07T01:58:20;6.88;;;3.25;;
51566;SDS011;37657;53.182;5.638;2023-08-07T02:00:46;6.72;;;3.33;;
51566;SDS011;37657;53.182;5.638;2023-08-07T02:03:12;19.30;;;3.95;;
51566;SDS011;37657;53.182;5.638;2023-08-07T02:05:37;7.78;;;3.78;;
51566;SDS011;37657;53.182;5.638;2023-08-07T02:08:03;7.25;;;4.07;;
51566;SDS011;37657;53.182;5.638;2023-08-07T02:10:28;3.67;;;2.80;;
51566;SDS011;37657;53.182;5.638;2023-08-07T02:12:54;7.20;;;3.13;;
51566;SDS011;37657;53.182;5.638;2023-08-07T02:15:22;4.65;;;2.22;;
51566;SDS011;37657;53.182;5.638;2023-08-07T02:17:47;3.83;;;1.73;;
51566;SDS011;37657;53.182;5.638;2023-08-07T02:20:13;2.13;;;1.40;;
51566;SDS011;37657;53.182;5.638;2023-08-07T02:22:38;9.75;;;1.80;;
51566;SDS011;37657;53.182;5.638;2023-08-07T02:25:04;3.42;;;2.10;;
51566;SDS011;37657;53.182;5.638;2023-08-07T02:27:30;2.28;;;1.90;;
51566;SDS011;37657;53.182;5.638;2023-08-07T02:29:55;8.23;;;3.67;;
51566;SDS011;37657;53.182;5.638;2023-08-07T02:32:21;9.85;;;3.75;;
51566;SDS011;37657;53.182;5.638;2023-08-07T02:34:46;11.07;;;3.97;;
51566;SDS011;37657;53.182;5.638;2023-08-07T02:37:12;8.20;;;4.07;;
51566;SDS011;37657;53.182;5.638;2023-08-07T02:39:38;11.82;;;4.72;;
51566;SDS011;37657;53.182;5.638;2023-08-07T02:42:03;12.05;;;5.05;;
51566;SDS011;37657;53.182;5.638;2023-08-07T02:44:32;16.98;;;5.57;;
51566;SDS011;37657;53.182;5.638;2023-08-07T02:46:57;9.02;;;4.10;;
51566;SDS011;37657;53.182;5.638;2023-08-07T02:49:23;16.98;;;6.57;;
51566;SDS011;37657;53.182;5.638;2023-08-07T02:51:48;14.40;;;5.03;;
51566;SDS011;37657;53.182;5.638;2023-08-07T02:54:14;12.10;;;4.22;;
51566;SDS011;37657;53.182;5.638;2023-08-07T02:56:40;13.65;;;5.93;;
51566;SDS011;37657;53.182;5.638;2023-08-07T02:59:06;13.10;;;5.18;;
51566;SDS011;37657;53.182;5.638;2023-08-07T03:01:31;13.13;;;5.43;;
51566;SDS011;37657;53.182;5.638;2023-08-07T03:03:57;12.57;;;4.68;;
51566;SDS011;37657;53.182;5.638;2023-08-07T03:06:23;9.23;;;4.40;;
51566;SDS011;37657;53.182;5.638;2023-08-07T03:08:48;9.75;;;4.95;;
51566;SDS011;37657;53.182;5.638;2023-08-07T03:11:14;9.98;;;4.32;;
51566;SDS011;37657;53.182;5.638;2023-08-07T03:13:40;8.82;;;3.95;;
51566;SDS011;37657;53.182;5.638;2023-08-07T03:16:07;10.63;;;5.28;;
51566;SDS011;37657;53.182;5.638;2023-08-07T03:18:33;15.02;;;5.22;;
51566;SDS011;37657;53.182;5.638;2023-08-07T03:20:59;7.80;;;3.78;;
51566;SDS011;37657;53.182;5.638;2023-08-07T03:23:25;10.93;;;4.60;;
51566;SDS011;37657;53.182;5.638;2023-08-07T03:26:01;10.65;;;5.18;;
51566;SDS011;37657;53.182;5.638;2023-08-07T03:28:27;10.82;;;5.05;;
51566;SDS011;37657;53.182;5.638;2023-08-07T03:30:52;11.70;;;4.68;;
51566;SDS011;37657;53.182;5.638;2023-08-07T03:33:18;12.80;;;5.57;;
51566;SDS011;37657;53.182;5.638;2023-08-07T03:35:43;11.88;;;5.57;;
51566;SDS011;37657;53.182;5.638;2023-08-07T03:38:10;11.00;;;4.70;;
51566;SDS011;37657;53.182;5.638;2023-08-07T03:40:36;8.70;;;4.40;;
51566;SDS011;37657;53.182;5.638;2023-08-07T03:43:01;7.65;;;3.78;;
51566;SDS011;37657;53.182;5.638;2023-08-07T03:45:27;9.05;;;4.22;;
51566;SDS011;37657;53.182;5.638;2023-08-07T03:47:52;7.72;;;4.05;;
51566;SDS011;37657;53.182;5.638;2023-08-07T03:50:18;6.90;;;3.97;;
51566;SDS011;37657;53.182;5.638;2023-08-07T03:52:43;9.43;;;4.65;;
51566;SDS011;37657;53.182;5.638;2023-08-07T03:55:09;8.02;;;3.95;;
51566;SDS011;37657;53.182;5.638;2023-08-07T03:57:34;8.00;;;3.55;;
51566;SDS011;37657;53.182;5.638;2023-08-07T04:00:00;8.88;;;3.78;;
51566;SDS011;37657;53.182;5.638;2023-08-07T04:02:25;10.20;;;4.28;;
51566;SDS011;37657;53.182;5.638;2023-08-07T04:04:52;5.78;;;3.22;;
51566;SDS011;37657;53.182;5.638;2023-08-07T04:07:18;8.98;;;3.55;;
51566;SDS011;37657;53.182;5.638;2023-08-07T04:09:43;10.70;;;3.28;;
51566;SDS011;37657;53.182;5.638;2023-08-07T04:12:09;9.45;;;4.30;;
51566;SDS011;37657;53.182;5.638;2023-08-07T04:14:34;5.32;;;3.08;;
51566;SDS011;37657;53.182;5.638;2023-08-07T04:17:00;7.43;;;3.35;;
51566;SDS011;37657;53.182;5.638;2023-08-07T04:19:25;9.75;;;3.78;;
51566;SDS011;37657;53.182;5.638;2023-08-07T04:21:51;8.50;;;3.35;;
51566;SDS011;37657;53.182;5.638;2023-08-07T04:24:17;9.93;;;6.00;;
51566;SDS011;37657;53.182;5.638;2023-08-07T04:26:42;12.57;;;4.07;;
51566;SDS011;37657;53.182;5.638;2023-08-07T04:29:08;7.88;;;5.00;;
51566;SDS011;37657;53.182;5.638;2023-08-07T04:31:33;13.00;;;6.53;;
51566;SDS011;37657;53.182;5.638;2023-08-07T04:33:59;11.05;;;5.80;;
51566;SDS011;37657;53.182;5.638;2023-08-07T04:36:25;12.15;;;5.65;;
51566;SDS011;37657;53.182;5.638;2023-08-07T04:38:50;7.88;;;4.50;;
51566;SDS011;37657;53.182;5.638;2023-08-07T04:41:16;19.45;;;7.07;;
51566;SDS011;37657;53.182;5.638;2023-08-07T04:43:42;12.02;;;5.45;;
51566;SDS011;37657;53.182;5.638;2023-08-07T04:46:08;12.93;;;5.97;;
51566;SDS011;37657;53.182;5.638;2023-08-07T04:48:34;12.95;;;5.68;;
51566;SDS011;37657;53.182;5.638;2023-08-07T04:51:01;14.27;;;6.35;;
51566;SDS011;37657;53.182;5.638;2023-08-07T04:53:27;8.88;;;5.30;;
51566;SDS011;37657;53.182;5.638;2023-08-07T04:55:52;15.05;;;6.10;;
51566;SDS011;37657;53.182;5.638;2023-08-07T04:58:18;12.13;;;6.00;;
51566;SDS011;37657;53.182;5.638;2023-08-07T05:00:43;20.35;;;5.55;;
51566;SDS011;37657;53.182;5.638;2023-08-07T05:03:09;13.93;;;5.40;;
51566;SDS011;37657;53.182;5.638;2023-08-07T05:05:35;11.68;;;4.97;;
51566;SDS011;37657;53.182;5.638;2023-08-07T05:08:00;6.30;;;3.22;;
51566;SDS011;37657;53.182;5.638;2023-08-07T05:10:26;10.13;;;5.07;;
51566;SDS011;37657;53.182;5.638;2023-08-07T05:12:52;11.48;;;4.97;;
51566;SDS011;37657;53.182;5.638;2023-08-07T05:15:24;8.70;;;3.60;;
51566;SDS011;37657;53.182;5.638;2023-08-07T05:17:50;10.18;;;4.82;;
51566;SDS011;37657;53.182;5.638;2023-08-07T05:20:17;17.65;;;6.22;;
51566;SDS011;37657;53.182;5.638;2023-08-07T05:22:43;28.63;;;7.22;;
51566;SDS011;37657;53.182;5.638;2023-08-07T05:25:08;14.23;;;5.70;;
51566;SDS011;37657;53.182;5.638;2023-08-07T05:27:36;13.30;;;5.57;;
51566;SDS011;37657;53.182;5.638;2023-08-07T05:30:02;19.50;;;5.40;;
51566;SDS011;37657;53.182;5.638;2023-08-07T05:32:28;16.02;;;4.40;;
51566;SDS011;37657;53.182;5.638;2023-08-07T05:34:53;9.90;;;4.47;;
51566;SDS011;37657;53.182;5.638;2023-08-07T05:37:19;15.82;;;5.03;;
51566;SDS011;37657;53.182;5.638;2023-08-07T05:39:44;8.70;;;4.15;;
51566;SDS011;37657;53.182;5.638;2023-08-07T05:42:10;7.63;;;5.22;;
51566;SDS011;37657;53.182;5.638;2023-08-07T05:44:37;6.35;;;3.53;;
51566;SDS011;37657;53.182;5.638;2023-08-07T05:47:03;6.50;;;3.72;;
51566;SDS011;37657;53.182;5.638;2023-08-07T05:49:28;8.60;;;3.97;;
51566;SDS011;37657;53.182;5.638;2023-08-07T05:51:54;9.75;;;4.00;;
51566;SDS011;37657;53.182;5.638;2023-08-07T05:54:19;8.40;;;4.18;;
51566;SDS011;37657;53.182;5.638;2023-08-07T05:56:45;8.95;;;3.58;;
51566;SDS011;37657;53.182;5.638;2023-08-07T05:59:10;9.05;;;4.47;;
51566;SDS011;37657;53.182;5.638;2023-08-07T06:01:36;26.52;;;5.38;;
51566;SDS011;37657;53.182;5.638;2023-08-07T06:04:02;11.80;;;5.05;;
51566;SDS011;37657;53.182;5.638;2023-08-07T06:06:28;8.25;;;3.95;;
51566;SDS011;37657;53.182;5.638;2023-08-07T06:08:54;8.77;;;4.47;;
51566;SDS011;37657;53.182;5.638;2023-08-07T06:11:19;7.47;;;4.25;;
51566;SDS011;37657;53.182;5.638;2023-08-07T06:13:45;6.55;;;3.58;;
51566;SDS011;37657;53.182;5.638;2023-08-07T06:16:10;6.53;;;3.50;;
51566;SDS011;37657;53.182;5.638;2023-08-07T06:18:36;8.00;;;3.53;;
51566;SDS011;37657;53.182;5.638;2023-08-07T06:21:02;5.50;;;3.67;;
51566;SDS011;37657;53.182;5.638;2023-08-07T06:23:29;7.88;;;3.60;;
51566;SDS011;37657;53.182;5.638;2023-08-07T06:25:55;15.65;;;3.67;;
51566;SDS011;37657;53.182;5.638;2023-08-07T06:28:22;10.40;;;4.63;;
51566;SDS011;37657;53.182;5.638;2023-08-07T06:30:47;7.97;;;3.90;;
51566;SDS011;37657;53.182;5.638;2023-08-07T06:33:13;7.50;;;2.80;;
51566;SDS011;37657;53.182;5.638;2023-08-07T06:35:38;11.35;;;4.75;;
51566;SDS011;37657;53.182;5.638;2023-08-07T06:38:05;5.75;;;3.25;;
51566;SDS011;37657;53.182;5.638;2023-08-07T06:40:30;11.45;;;4.25;;
51566;SDS011;37657;53.182;5.638;2023-08-07T06:42:56;11.68;;;4.38;;
51566;SDS011;37657;53.182;5.638;2023-08-07T06:45:22;10.68;;;4.03;;
51566;SDS011;37657;53.182;5.638;2023-08-07T06:47:47;6.68;;;4.05;;
51566;SDS011;37657;53.182;5.638;2023-08-07T06:50:13;15.07;;;6.18;;
51566;SDS011;37657;53.182;5.638;2023-08-07T06:52:39;12.93;;;4.35;;
51566;SDS011;37657;53.182;5.638;2023-08-07T06:55:04;8.05;;;3.25;;
51566;SDS011;37657;53.182;5.638;2023-08-07T06:57:30;10.77;;;3.38;;
51566;SDS011;37657;53.182;5.638;2023-08-07T06:59:56;10.23;;;3.53;;
51566;SDS011;37657;53.182;5.638;2023-08-07T07:02:21;5.78;;;3.45;;
51566;SDS011;37657;53.182;5.638;2023-08-07T07:04:47;7.70;;;3.60;;
51566;SDS011;37657;53.182;5.638;2023-08-07T07:07:12;9.90;;;3.85;;
51566;SDS011;37657;53.182;5.638;2023-08-07T07:09:38;9.50;;;4.68;;
51566;SDS011;37657;53.182;5.638;2023-08-07T07:12:04;29.88;;;5.55;;
51566;SDS011;37657;53.182;5.638;2023-08-07T07:14:29;6.78;;;3.78;;
51566;SDS011;37657;53.182;5.638;2023-08-07T07:16:55;8.60;;;4.68;;
51566;SDS011;37657;53.182;5.638;2023-08-07T07:19:20;9.15;;;4.05;;
51566;SDS011;37657;53.182;5.638;2023-08-07T07:21:46;9.52;;;4.60;;
51566;SDS011;37657;53.182;5.638;2023-08-07T07:24:11;6.38;;;4.88;;
51566;SDS011;37657;53.182;5.638;2023-08-07T07:26:37;11.63;;;4.63;;
51566;SDS011;37657;53.182;5.638;2023-08-07T07:29:03;7.18;;;3.70;;
51566;SDS011;37657;53.182;5.638;2023-08-07T07:31:28;9.30;;;5.43;;
51566;SDS011;37657;53.182;5.638;2023-08-07T07:33:54;7.90;;;4.47;;
51566;SDS011;37657;53.182;5.638;2023-08-07T07:36:19;8.02;;;4.05;;
51566;SDS011;37657;53.182;5.638;2023-08-07T07:38:45;12.73;;;4.40;;
51566;SDS011;37657;53.182;5.638;2023-08-07T07:41:12;10.40;;;4.80;;
51566;SDS011;37657;53.182;5.638;2023-08-07T07:43:38;15.18;;;5.35;;
51566;SDS011;37657;53.182;5.638;2023-08-07T07:46:04;11.98;;;4.85;;
51566;SDS011;37657;53.182;5.638;2023-08-07T07:48:29;9.68;;;4.55;;
51566;SDS011;37657;53.182;5.638;2023-08-07T07:50:59;15.45;;;6.57;;
51566;SDS011;37657;53.182;5.638;2023-08-07T07:53:25;9.10;;;4.72;;
51566;SDS011;37657;53.182;5.638;2023-08-07T07:55:51;8.32;;;3.97;;
51566;SDS011;37657;53.182;5.638;2023-08-07T07:58:16;7.03;;;3.60;;
51566;SDS011;37657;53.182;5.638;2023-08-07T08:00:42;12.77;;;2.75;;
51566;SDS011;37657;53.182;5.638;2023-08-07T08:03:08;6.68;;;2.90;;
51566;SDS011;37657;53.182;5.638;2023-08-07T08:05:33;5.20;;;3.80;;
51566;SDS011;37657;53.182;5.638;2023-08-07T08:07:59;9.85;;;3.63;;
51566;SDS011;37657;53.182;5.638;2023-08-07T08:10:26;5.75;;;3.28;;
51566;SDS011;37657;53.182;5.638;2023-08-07T08:12:54;7.10;;;3.47;;
51566;SDS011;37657;53.182;5.638;2023-08-07T08:15:20;6.13;;;3.13;;
51566;SDS011;37657;53.182;5.638;2023-08-07T08:17:46;7.53;;;3.33;;
51566;SDS011;37657;53.182;5.638;2023-08-07T08:20:12;7.38;;;3.78;;
51566;SDS011;37657;53.182;5.638;2023-08-07T08:22:43;8.20;;;3.55;;
51566;SDS011;37657;53.182;5.638;2023-08-07T08:25:09;9.40;;;2.97;;
51566;SDS011;37657;53.182;5.638;2023-08-07T08:27:36;11.35;;;3.95;;
51566;SDS011;37657;53.182;5.638;2023-08-07T08:30:02;15.10;;;4.97;;
51566;SDS011;37657;53.182;5.638;2023-08-07T08:32:28;10.45;;;4.05;;
51566;SDS011;37657;53.182;5.638;2023-08-07T08:34:54;5.88;;;3.13;;
51566;SDS011;37657;53.182;5.638;2023-08-07T08:37:19;6.22;;;2.45;;
51566;SDS011;37657;53.182;5.638;2023-08-07T08:39:45;11.60;;;5.03;;
51566;SDS011;37657;53.182;5.638;2023-08-07T08:42:10;11.00;;;3.97;;
51566;SDS011;37657;53.182;5.638;2023-08-07T08:44:38;14.05;;;4.38;;
51566;SDS011;37657;53.182;5.638;2023-08-07T08:47:04;6.60;;;3.53;;
51566;SDS011;37657;53.182;5.638;2023-08-07T08:49:33;6.07;;;3.72;;
51566;SDS011;37657;53.182;5.638;2023-08-07T08:52:02;7.85;;;3.83;;
51566;SDS011;37657;53.182;5.638;2023-08-07T08:54:29;11.88;;;3.25;;
51566;SDS011;37657;53.182;5.638;2023-08-07T08:56:56;6.82;;;3.45;;
51566;SDS011;37657;53.182;5.638;2023-08-07T08:59:24;10.13;;;4.28;;
51566;SDS011;37657;53.182;5.638;2023-08-07T09:01:51;6.30;;;3.45;;
51566;SDS011;37657;53.182;5.638;2023-08-07T09:04:17;7.97;;;3.78;;
51566;SDS011;37657;53.182;5.638;2023-08-07T09:06:43;9.38;;;4.43;;
51566;SDS011;37657;53.182;5.638;2023-08-07T09:09:09;6.47;;;3.65;;
51566;SDS011;37657;53.182;5.638;2023-08-07T09:11:37;8.45;;;4.13;;
51566;SDS011;37657;53.182;5.638;2023-08-07T09:14:03;7.57;;;3.00;;
51566;SDS011;37657;53.182;5.638;2023-08-07T09:16:29;8.27;;;4.13;;
51566;SDS011;37657;53.182;5.638;2023-08-07T09:18:55;7.68;;;3.22;;
51566;SDS011;37657;53.182;5.638;2023-08-07T09:21:21;22.45;;;3.75;;
51566;SDS011;37657;53.182;5.638;2023-08-07T09:23:47;15.27;;;4.45;;
51566;SDS011;37657;53.182;5.638;2023-08-07T09:26:12;6.22;;;2.88;;
51566;SDS011;37657;53.182;5.638;2023-08-07T09:28:38;8.27;;;3.65;;
51566;SDS011;37657;53.182;5.638;2023-08-07T09:31:05;6.78;;;2.97;;
51566;SDS011;37657;53.182;5.638;2023-08-07T09:33:33;5.95;;;2.88;;
51566;SDS011;37657;53.182;5.638;2023-08-07T09:35:59;8.25;;;3.33;;
51566;SDS011;37657;53.182;5.638;2023-08-07T09:38:29;8.40;;;3.80;;
51566;SDS011;37657;53.182;5.638;2023-08-07T09:41:00;6.22;;;2.95;;
51566;SDS011;37657;53.182;5.638;2023-08-07T09:43:28;7.32;;;3.67;;
51566;SDS011;37657;53.182;5.638;2023-08-07T09:46:02;11.88;;;3.40;;
51566;SDS011;37657;53.182;5.638;2023-08-07T09:51:02;7.50;;;2.85;;
51566;SDS011;37657;53.182;5.638;2023-08-07T09:53:29;7.45;;;3.85;;
51566;SDS011;37657;53.182;5.638;2023-08-07T09:55:55;7.97;;;4.28;;
51566;SDS011;37657;53.182;5.638;2023-08-07T09:58:21;7.78;;;3.53;;
51566;SDS011;37657;53.182;5.638;2023-08-07T10:00:47;5.93;;;2.70;;
51566;SDS011;37657;53.182;5.638;2023-08-07T10:03:13;4.97;;;2.45;;
51566;SDS011;37657;53.182;5.638;2023-08-07T10:05:41;5.88;;;2.75;;
51566;SDS011;37657;53.182;5.638;2023-08-07T10:08:07;6.55;;;3.40;;
51566;SDS011;37657;53.182;5.638;2023-08-07T10:10:33;9.40;;;2.78;;
51566;SDS011;37657;53.182;5.638;2023-08-07T10:13:00;4.72;;;3.00;;
51566;SDS011;37657;53.182;5.638;2023-08-07T10:15:26;6.43;;;2.47;;
51566;SDS011;37657;53.182;5.638;2023-08-07T10:17:53;5.60;;;2.92;;
51566;SDS011;37657;53.182;5.638;2023-08-07T10:20:19;7.47;;;3.65;;
51566;SDS011;37657;53.182;5.638;2023-08-07T10:22:45;8.93;;;2.63;;
51566;SDS011;37657;53.182;5.638;2023-08-07T10:25:11;4.43;;;2.15;;
51566;SDS011;37657;53.182;5.638;2023-08-07T10:27:38;7.60;;;3.28;;
51566;SDS011;37657;53.182;5.638;2023-08-07T10:30:07;9.25;;;2.85;;
51566;SDS011;37657;53.182;5.638;2023-08-07T10:32:38;7.00;;;3.17;;
51566;SDS011;37657;53.182;5.638;2023-08-07T10:35:04;9.70;;;3.55;;
51566;SDS011;37657;53.182;5.638;2023-08-07T10:37:40;8.02;;;3.65;;
51566;SDS011;37657;53.182;5.638;2023-08-07T10:40:08;9.52;;;3.17;;
51566;SDS011;37657;53.182;5.638;2023-08-07T10:45:19;6.30;;;2.83;;
51566;SDS011;37657;53.182;5.638;2023-08-07T10:48:06;5.47;;;2.97;;
51566;SDS011;37657;53.182;5.638;2023-08-07T10:50:48;9.68;;;4.00;;
51566;SDS011;37657;53.182;5.638;2023-08-07T10:53:19;7.78;;;3.53;;
51566;SDS011;37657;53.182;5.638;2023-08-07T10:55:52;5.22;;;2.92;;
51566;SDS011;37657;53.182;5.638;2023-08-07T10:58:23;6.68;;;3.00;;
51566;SDS011;37657;53.182;5.638;2023-08-07T11:03:45;6.80;;;2.85;;
51566;SDS011;37657;53.182;5.638;2023-08-07T11:06:24;8.40;;;3.78;;
51566;SDS011;37657;53.182;5.638;2023-08-07T11:08:53;9.60;;;3.25;;
51566;SDS011;37657;53.182;5.638;2023-08-07T11:11:19;7.53;;;2.85;;
51566;SDS011;37657;53.182;5.638;2023-08-07T11:13:45;5.28;;;2.47;;
51566;SDS011;37657;53.182;5.638;2023-08-07T11:16:11;8.15;;;3.05;;
51566;SDS011;37657;53.182;5.638;2023-08-07T11:18:37;6.38;;;2.50;;
51566;SDS011;37657;53.182;5.638;2023-08-07T11:21:06;11.65;;;2.83;;
51566;SDS011;37657;53.182;5.638;2023-08-07T11:23:33;6.10;;;3.17;;
51566;SDS011;37657;53.182;5.638;2023-08-07T11:25:58;10.75;;;3.75;;
51566;SDS011;37657;53.182;5.638;2023-08-07T11:28:24;7.65;;;3.50;;
51566;SDS011;37657;53.182;5.638;2023-08-07T11:30:53;6.63;;;3.78;;
51566;SDS011;37657;53.182;5.638;2023-08-07T11:33:21;10.45;;;3.53;;
51566;SDS011;37657;53.182;5.638;2023-08-07T11:35:48;5.15;;;3.03;;
51566;SDS011;37657;53.182;5.638;2023-08-07T11:38:33;6.05;;;2.65;;
51566;SDS011;37657;53.182;5.638;2023-08-07T11:41:05;4.85;;;2.33;;
51566;SDS011;37657;53.182;5.638;2023-08-07T11:43:33;4.35;;;2.00;;
51566;SDS011;37657;53.182;5.638;2023-08-07T11:46:01;4.32;;;2.53;;
51566;SDS011;37657;53.182;5.638;2023-08-07T11:48:28;5.82;;;3.10;;
51566;SDS011;37657;53.182;5.638;2023-08-07T11:50:55;6.13;;;3.50;;
51566;SDS011;37657;53.182;5.638;2023-08-07T11:53:23;7.13;;;2.25;;
51566;SDS011;37657;53.182;5.638;2023-08-07T11:55:56;4.65;;;2.90;;
51566;SDS011;37657;53.182;5.638;2023-08-07T11:58:24;5.18;;;3.08;;
51566;SDS011;37657;53.182;5.638;2023-08-07T12:00:51;6.80;;;3.05;;
51566;SDS011;37657;53.182;5.638;2023-08-07T12:03:33;10.63;;;3.72;;
51566;SDS011;37657;53.182;5.638;2023-08-07T12:11:06;5.85;;;2.72;;
51566;SDS011;37657;53.182;5.638;2023-08-07T12:13:37;7.00;;;3.08;;
51566;SDS011;37657;53.182;5.638;2023-08-07T12:16:06;6.93;;;3.03;;
51566;SDS011;37657;53.182;5.638;2023-08-07T12:18:33;10.07;;;4.03;;
51566;SDS011;37657;53.182;5.638;2023-08-07T12:21:01;6.20;;;3.25;;
51566;SDS011;37657;53.182;5.638;2023-08-07T12:23:32;7.38;;;3.33;;
51566;SDS011;37657;53.182;5.638;2023-08-07T12:25:59;5.78;;;2.38;;
51566;SDS011;37657;53.182;5.638;2023-08-07T12:28:25;8.55;;;3.55;;
51566;SDS011;37657;53.182;5.638;2023-08-07T12:30:51;7.63;;;3.20;;
51566;SDS011;37657;53.182;5.638;2023-08-07T12:33:17;4.97;;;3.08;;
51566;SDS011;37657;53.182;5.638;2023-08-07T12:35:43;5.10;;;3.05;;
51566;SDS011;37657;53.182;5.638;2023-08-07T12:38:09;13.18;;;3.28;;
51566;SDS011;37657;53.182;5.638;2023-08-07T12:40:35;5.32;;;3.05;;
51566;SDS011;37657;53.182;5.638;2023-08-07T12:43:02;7.90;;;3.97;;
51566;SDS011;37657;53.182;5.638;2023-08-07T12:45:28;6.10;;;3.70;;
51566;SDS011;37657;53.182;5.638;2023-08-07T12:47:53;11.65;;;3.88;;
51566;SDS011;37657;53.182;5.638;2023-08-07T12:50:19;10.75;;;4.65;;
51566;SDS011;37657;53.182;5.638;2023-08-07T12:52:44;6.20;;;3.15;;
51566;SDS011;37657;53.182;5.638;2023-08-07T12:55:10;11.68;;;4.28;;
51566;SDS011;37657;53.182;5.638;2023-08-07T12:57:37;7.85;;;3.78;;
51566;SDS011;37657;53.182;5.638;2023-08-07T13:00:06;10.77;;;3.20;;
51566;SDS011;37657;53.182;5.638;2023-08-07T13:02:33;4.90;;;2.97;;
51566;SDS011;37657;53.182;5.638;2023-08-07T13:04:59;10.38;;;3.65;;
51566;SDS011;37657;53.182;5.638;2023-08-07T13:07:24;15.55;;;3.67;;
51566;SDS011;37657;53.182;5.638;2023-08-07T13:09:50;4.50;;;2.67;;
51566;SDS011;37657;53.182;5.638;2023-08-07T13:12:16;7.25;;;3.38;;
51566;SDS011;37657;53.182;5.638;2023-08-07T13:14:41;6.80;;;2.95;;
51566;SDS011;37657;53.182;5.638;2023-08-07T13:17:07;9.63;;;4.55;;
51566;SDS011;37657;53.182;5.638;2023-08-07T13:19:32;8.10;;;3.75;;
51566;SDS011;37657;53.182;5.638;2023-08-07T13:21:58;4.68;;;2.83;;
51566;SDS011;37657;53.182;5.638;2023-08-07T13:24:23;6.15;;;3.58;;
51566;SDS011;37657;53.182;5.638;2023-08-07T13:26:49;11.68;;;4.05;;
51566;SDS011;37657;53.182;5.638;2023-08-07T13:29:14;9.20;;;3.78;;
51566;SDS011;37657;53.182;5.638;2023-08-07T13:31:40;8.90;;;3.75;;
51566;SDS011;37657;53.182;5.638;2023-08-07T13:34:12;5.25;;;2.70;;
51566;SDS011;37657;53.182;5.638;2023-08-07T13:36:38;7.22;;;4.18;;
51566;SDS011;37657;53.182;5.638;2023-08-07T13:39:04;7.55;;;2.88;;
51566;SDS011;37657;53.182;5.638;2023-08-07T13:41:30;5.60;;;2.83;;
51566;SDS011;37657;53.182;5.638;2023-08-07T13:43:56;6.80;;;2.42;;
51566;SDS011;37657;53.182;5.638;2023-08-07T13:46:21;9.45;;;3.67;;
51566;SDS011;37657;53.182;5.638;2023-08-07T13:48:47;8.18;;;2.60;;
51566;SDS011;37657;53.182;5.638;2023-08-07T13:51:13;8.07;;;3.80;;
51566;SDS011;37657;53.182;5.638;2023-08-07T13:53:39;5.32;;;2.38;;
51566;SDS011;37657;53.182;5.638;2023-08-07T13:56:06;5.40;;;2.70;;
51566;SDS011;37657;53.182;5.638;2023-08-07T13:58:33;6.55;;;2.30;;
51566;SDS011;37657;53.182;5.638;2023-08-07T14:01:00;12.52;;;2.75;;
51566;SDS011;37657;53.182;5.638;2023-08-07T14:03:26;8.80;;;3.72;;
51566;SDS011;37657;53.182;5.638;2023-08-07T14:05:51;5.35;;;2.45;;
51566;SDS011;37657;53.182;5.638;2023-08-07T14:08:17;4.40;;;1.95;;
51566;SDS011;37657;53.182;5.638;2023-08-07T14:10:43;9.27;;;2.85;;
51566;SDS011;37657;53.182;5.638;2023-08-07T14:13:09;5.28;;;2.17;;
51566;SDS011;37657;53.182;5.638;2023-08-07T14:15:36;6.57;;;2.42;;
51566;SDS011;37657;53.182;5.638;2023-08-07T14:18:01;4.85;;;3.30;;
51566;SDS011;37657;53.182;5.638;2023-08-07T14:20:27;7.22;;;2.45;;
51566;SDS011;37657;53.182;5.638;2023-08-07T14:22:53;7.05;;;2.10;;
51566;SDS011;37657;53.182;5.638;2023-08-07T14:25:18;3.80;;;2.10;;
51566;SDS011;37657;53.182;5.638;2023-08-07T14:27:47;5.65;;;2.28;;
51566;SDS011;37657;53.182;5.638;2023-08-07T14:30:13;2.08;;;1.40;;
51566;SDS011;37657;53.182;5.638;2023-08-07T14:32:38;2.42;;;1.40;;
51566;SDS011;37657;53.182;5.638;2023-08-07T14:35:04;6.07;;;2.88;;
51566;SDS011;37657;53.182;5.638;2023-08-07T14:37:30;4.15;;;2.17;;
51566;SDS011;37657;53.182;5.638;2023-08-07T14:39:56;4.55;;;2.72;;
51566;SDS011;37657;53.182;5.638;2023-08-07T14:42:21;4.80;;;2.30;;
51566;SDS011;37657;53.182;5.638;2023-08-07T14:44:47;3.40;;;1.95;;
51566;SDS011;37657;53.182;5.638;2023-08-07T14:47:13;4.45;;;1.92;;
51566;SDS011;37657;53.182;5.638;2023-08-07T14:49:38;6.25;;;2.60;;
51566;SDS011;37657;53.182;5.638;2023-08-07T14:52:04;5.35;;;2.60;;
51566;SDS011;37657;53.182;5.638;2023-08-07T14:54:30;8.13;;;2.58;;